• Join FlightAware (Why Join?)
  • Login
  • US Flag 
12:48AM EDT


 

Airport Tracker/Info


-or-


 

Live Flight TrackerFlight Track Log ✈ N7191N ✈ 02-May-2013 ✈ KSGH - KCLE

Flight Track Log - Related Links

Times and Time Zones

All times are in EDT time to prevent confusion due to time zone crossing. See the N7191N flight status page for this flight to view local times or setup timezone preferences in your user account.

Time Position Orientation Groundspeed Altitude Reporting Facility
EDT Latitude Longitude Course Direction KTS MPH feet Rate Location/Type
05:07PM 39.8956 -83.7325 40° Northeast 181 208 5,600  Level Indianapolis Center
05:08PM 39.9211 -83.6758 60° Northeast 183 211 7,000 1,200 Climbing Indianapolis Center
05:09PM 39.9406 -83.6111 69° East 187 215 8,200 1,080 Climbing Indianapolis Center
05:10PM 39.9653 -83.5442 64° Northeast 198 228 9,300 960 Climbing Indianapolis Center
05:11PM 40.0058 -83.4919 45° Northeast 212 244 10,200 960 Climbing Indianapolis Center
05:12PM 40.0569 -83.4486 33° Northeast 216 249 11,400 1,080 Climbing Indianapolis Center
05:13PM 40.1006 -83.3983 41° Northeast 208 239 12,500 720 Climbing Indianapolis Center
05:14PM 40.1564 -83.3400 39° Northeast 219 252 13,000 180 Climbing Indianapolis Center
05:15PM 40.2106 -83.2819 39° Northeast 246 283 12,900 -60 Descending Indianapolis Center
05:16PM 40.2669 -83.2256 37° Northeast 252 290 12,900  Level Indianapolis Center
05:17PM 40.3222 -83.1678 39° Northeast 252 290 12,900  Level Indianapolis Center
05:18PM 40.3783 -83.1086 39° Northeast 255 293 12,900  Level Indianapolis Center
05:19PM 40.4347 -83.0511 38° Northeast 256 295 12,900  Level Indianapolis Center
05:20PM 40.4906 -82.9925 39° Northeast 255 293 12,900  Level Indianapolis Center
05:21PM 40.5536 -82.9247 39° Northeast 257 296 12,900  Level Indianapolis Center
05:23PM 40.6517 -82.8217 39° Northeast 253 291 12,900 -300 Level Cleveland Center
05:24PM 40.7072 -82.7633 39° Northeast 253 291 12,100 -960 Descending Cleveland Center
05:25PM 40.7647 -82.6994 40° Northeast 267 307 11,000 -1,140 Descending Cleveland Center
05:25PM 40.7836 -82.6836 32° Northeast 274 315 10,700 -1,200 Descending Cleveland Center
05:26PM 40.8242 -82.6356 42° Northeast 267 307 9,800 -960 Descending Cleveland Center
05:27PM 40.8856 -82.5797 35° Northeast 267 307 9,100 -420 Descending Cleveland Center
05:28PM 40.9469 -82.5350 29° Northeast 249 287 9,000 -120 Descending Cleveland Center
05:28PM 40.9617 -82.5272 22° Northeast 238 274 9,000  Level Cleveland Center
05:29PM 41.0039 -82.4872 36° Northeast 244 281 9,000 -120 Level Cleveland Center
05:30PM 41.0425 -82.4250 51° Northeast 239 275 8,800 -600 Descending Cleveland Center
05:31PM 41.0894 -82.3492 51° Northeast 250 288 7,800 -1,080 Descending Cleveland Center
05:32PM 41.1364 -82.2814 47° Northeast 244 281 6,700 -960 Descending Cleveland Center
05:33PM 41.1792 -82.2081 52° Northeast 238 274 6,000 -360 Descending Cleveland Center
05:34PM 41.2175 -82.1511 48° Northeast 241 277 6,000 -480 Level Cleveland Center
05:35PM 41.2600 -82.0858 49° Northeast 230 265 5,100 -1,020 Descending Cleveland Center
05:36PM 41.3069 -82.0122 50° Northeast 216 249 3,900 -1,200 Descending Cleveland Center
05:37PM 41.3472 -81.9522 48° Northeast 215 247 2,600 -1,140 Descending Cleveland Center
05:38PM 41.3769 -81.9003 53° Northeast 148 170 1,600 -840 Descending Cleveland Center
05:39PM 41.3983 -81.8703 46° Northeast 90 104 1,000 -600 Descending Cleveland Center
05:41PM 41.4000 -81.8500 37° Northeast  Level FlightAware Approximate